Time;durP1;ratioP1;P1;durP2;ratioP2;P2;SDS_P1;SDS_P2;PMS_P1;PMS_P2;Temp;Humidity;BMP_temperature;BMP_pressure;BME280_temperature;BME280_humidity;BME280_pressure;Samples;Min_cycle;Max_cycle;Signal;HPM_P1;HPM_P2
2021/11/11 00:01:15;;;;;;;22.38;9.65;;;3.60;99.90;;;;;;5090933;28;20058;-52
2021/11/11 00:03:41;;;;;;;17.77;9.73;;;3.50;99.90;;;;;;5080633;28;20031;-49
2021/11/11 00:06:06;;;;;;;16.58;9.93;;;3.50;99.90;;;;;;5083816;28;20267;-48
2021/11/11 00:08:32;;;;;;;15.15;9.68;;;3.50;99.90;;;;;;5090306;28;20052;-48
2021/11/11 00:10:57;;;;;;;14.85;9.70;;;3.50;99.90;;;;;;5090776;28;20028;-49
2021/11/11 00:13:23;;;;;;;13.07;8.40;;;3.50;99.90;;;;;;5089317;28;20035;-48
2021/11/11 00:15:51;;;;;;;15.73;9.60;;;3.50;99.90;;;;;;5089346;28;20020;-50
2021/11/11 00:18:17;;;;;;;14.57;9.77;;;3.50;99.90;;;;;;5089886;28;20020;-50
2021/11/11 00:20:43;;;;;;;14.95;9.88;;;3.50;99.90;;;;;;5090555;28;20548;-49
2021/11/11 00:23:09;;;;;;;17.08;10.90;;;3.50;99.90;;;;;;5090447;28;20146;-48
2021/11/11 00:25:35;;;;;;;17.48;10.13;;;3.60;99.90;;;;;;5090329;28;20408;-49
2021/11/11 00:28:00;;;;;;;18.75;11.10;;;3.60;99.90;;;;;;5089928;28;20416;-48
2021/11/11 00:30:29;;;;;;;20.65;10.73;;;3.50;99.90;;;;;;5090555;28;20388;-50
2021/11/11 00:32:55;;;;;;;18.25;10.75;;;3.40;99.90;;;;;;5080499;28;20024;-48
2021/11/11 00:35:26;;;;;;;16.48;9.40;;;3.40;99.90;;;;;;5081804;28;20020;-47
2021/11/11 00:37:53;;;;;;;15.63;10.18;;;3.40;99.90;;;;;;5089623;28;20028;-49
2021/11/11 00:40:19;;;;;;;16.67;10.02;;;3.40;99.90;;;;;;5088554;28;20028;-47
2021/11/11 00:42:45;;;;;;;19.02;11.65;;;3.40;99.90;;;;;;5081624;28;20043;-48
2021/11/11 00:45:12;;;;;;;26.75;12.38;;;3.40;99.90;;;;;;5090129;28;20048;-48
2021/11/11 00:47:38;;;;;;;19.38;12.43;;;3.40;99.90;;;;;;5089386;28;20027;-50
2021/11/11 00:50:05;;;;;;;23.17;12.55;;;3.40;99.90;;;;;;5090162;28;20270;-48
2021/11/11 00:52:33;;;;;;;19.60;11.60;;;3.40;99.90;;;;;;5089009;28;20016;-49
2021/11/11 00:55:00;;;;;;;21.45;11.60;;;3.50;99.90;;;;;;5090158;28;20024;-49
2021/11/11 00:57:26;;;;;;;20.15;11.27;;;3.40;99.90;;;;;;5089394;28;20012;-48
2021/11/11 00:59:51;;;;;;;20.35;10.65;;;3.40;99.90;;;;;;5090235;28;20024;-50
2021/11/11 01:02:17;;;;;;;19.42;11.15;;;3.40;99.90;;;;;;5089876;28;20027;-50
2021/11/11 01:04:43;;;;;;;14.85;9.80;;;3.30;99.90;;;;;;5071602;28;20052;-48
2021/11/11 01:07:09;;;;;;;15.82;9.80;;;3.30;99.90;;;;;;5080457;28;20028;-48
2021/11/11 01:09:37;;;;;;;20.92;10.30;;;3.30;99.90;;;;;;5089816;28;20081;-50
2021/11/11 01:12:03;;;;;;;15.75;9.75;;;3.30;99.90;;;;;;5089777;28;20065;-48
2021/11/11 01:14:29;;;;;;;14.82;9.65;;;3.30;99.90;;;;;;5089268;28;20028;-49
2021/11/11 01:16:56;;;;;;;16.05;9.45;;;3.20;99.90;;;;;;5089481;28;20362;-48
2021/11/11 01:19:22;;;;;;;17.50;10.20;;;3.20;99.90;;;;;;5087394;28;20028;-50
2021/11/11 01:21:48;;;;;;;18.85;10.15;;;3.20;99.90;;;;;;5089446;28;20020;-47
2021/11/11 01:24:14;;;;;;;17.85;10.02;;;3.20;99.90;;;;;;5077622;28;20262;-48
2021/11/11 01:26:39;;;;;;;16.23;10.07;;;3.20;99.90;;;;;;5076293;28;20020;-49
2021/11/11 01:29:05;;;;;;;21.13;11.63;;;3.20;99.90;;;;;;5087234;28;20028;-51
2021/11/11 01:31:30;;;;;;;24.98;13.02;;;3.20;99.90;;;;;;5089151;28;20039;-49
2021/11/11 01:33:56;;;;;;;20.13;11.45;;;3.30;99.90;;;;;;5082603;28;20052;-48
2021/11/11 01:36:21;;;;;;;17.40;10.80;;;3.30;99.90;;;;;;5084158;28;20489;-50
2021/11/11 01:38:47;;;;;;;21.65;12.30;;;3.30;99.90;;;;;;5088474;28;20036;-47
2021/11/11 01:41:13;;;;;;;26.00;13.20;;;3.30;99.90;;;;;;5089222;28;20065;-50
2021/11/11 01:43:38;;;;;;;17.08;11.23;;;3.40;99.90;;;;;;5089178;28;20022;-48
2021/11/11 01:46:04;;;;;;;18.13;11.10;;;3.30;99.90;;;;;;5088985;28;20128;-50
2021/11/11 01:48:29;;;;;;;21.27;11.70;;;3.30;99.90;;;;;;5086643;28;20020;-51
2021/11/11 01:50:55;;;;;;;20.92;12.25;;;3.30;99.90;;;;;;5088852;28;20032;-50
2021/11/11 01:53:21;;;;;;;20.35;11.98;;;3.30;99.90;;;;;;5089097;28;20047;-49
2021/11/11 01:55:49;;;;;;;23.33;12.68;;;3.40;99.90;;;;;;5083090;28;20044;-51
2021/11/11 01:58:15;;;;;;;19.33;11.30;;;3.40;99.90;;;;;;5079866;28;20024;-49
2021/11/11 02:00:45;;;;;;;21.48;13.00;;;3.40;99.90;;;;;;5088801;28;20027;-48
2021/11/11 02:03:11;;;;;;;25.27;14.57;;;3.40;99.90;;;;;;5065154;28;20422;-50
2021/11/11 02:05:37;;;;;;;30.13;15.68;;;3.50;99.90;;;;;;5065830;28;20478;-48
2021/11/11 02:08:04;;;;;;;25.48;15.07;;;3.70;99.90;;;;;;5058964;28;20033;-49
2021/11/11 02:10:30;;;;;;;25.02;15.25;;;3.70;99.90;;;;;;5058261;28;20027;-50
2021/11/11 02:12:57;;;;;;;20.80;13.07;;;3.70;99.90;;;;;;5061814;28;20570;-51
2021/11/11 02:15:23;;;;;;;23.45;12.43;;;3.70;99.90;;;;;;5068717;28;20020;-49
2021/11/11 02:17:50;;;;;;;21.17;13.00;;;3.70;99.90;;;;;;5058015;28;20372;-48
2021/11/11 02:20:20;;;;;;;24.95;14.20;;;3.70;99.90;;;;;;5062831;28;20025;-49
2021/11/11 02:22:46;;;;;;;27.60;15.45;;;3.70;99.90;;;;;;5056662;28;20121;-50
2021/11/11 02:25:15;;;;;;;26.65;14.07;;;3.70;99.90;;;;;;5058456;28;20116;-49
2021/11/11 02:27:42;;;;;;;25.83;14.55;;;3.80;99.90;;;;;;5065719;28;20095;-49
2021/11/11 02:30:11;;;;;;;24.67;13.50;;;3.80;99.90;;;;;;5058840;28;20033;-48
2021/11/11 02:32:37;;;;;;;21.75;13.88;;;3.80;99.90;;;;;;5053028;28;20159;-49
2021/11/11 02:35:05;;;;;;;21.95;13.55;;;3.80;99.90;;;;;;5083824;28;20027;-51
2021/11/11 02:37:32;;;;;;;18.38;12.20;;;3.90;99.90;;;;;;5090654;28;20500;-49
2021/11/11 02:40:04;;;;;;;25.58;13.57;;;3.80;99.90;;;;;;5091091;28;20056;-52
2021/11/11 02:42:31;;;;;;;27.58;15.70;;;3.80;99.90;;;;;;5092502;28;20052;-49
2021/11/11 02:45:00;;;;;;;29.30;16.33;;;3.80;99.90;;;;;;5092775;28;20099;-49
2021/11/11 02:47:26;;;;;;;21.23;13.60;;;3.80;99.90;;;;;;5091543;28;20016;-50
2021/11/11 02:49:52;;;;;;;17.58;11.57;;;3.70;99.90;;;;;;5091956;28;20462;-51
2021/11/11 02:52:18;;;;;;;21.73;12.57;;;3.60;99.90;;;;;;5090935;28;20106;-52
2021/11/11 02:54:44;;;;;;;20.77;12.65;;;3.60;99.90;;;;;;5090942;28;20115;-47
2021/11/11 02:57:21;;;;;;;19.52;11.90;;;3.50;99.90;;;;;;5091759;28;20035;-47
2021/11/11 02:59:47;;;;;;;19.88;12.18;;;3.50;99.90;;;;;;5092531;28;20036;-51
2021/11/11 03:02:24;;;;;;;21.60;13.10;;;3.50;99.90;;;;;;5092407;28;20470;-49
2021/11/11 03:04:49;;;;;;;22.40;13.10;;;3.50;99.90;;;;;;5081485;28;20029;-48
2021/11/11 03:07:15;;;;;;;22.75;12.32;;;3.50;99.90;;;;;;5090145;28;20274;-48
2021/11/11 03:09:42;;;;;;;24.70;13.40;;;3.60;99.90;;;;;;5092111;28;20020;-48
2021/11/11 03:12:08;;;;;;;20.17;12.40;;;3.60;99.90;;;;;;5091831;28;20023;-51
2021/11/11 03:14:34;;;;;;;17.98;12.27;;;3.60;99.90;;;;;;5091726;28;20061;-49
2021/11/11 03:17:01;;;;;;;18.02;11.95;;;3.60;99.90;;;;;;5089955;28;20028;-49
2021/11/11 03:19:27;;;;;;;21.02;13.35;;;3.60;99.90;;;;;;5091684;28;20090;-49
2021/11/11 03:21:52;;;;;;;23.25;13.40;;;3.70;99.90;;;;;;5091819;28;20030;-49
2021/11/11 03:24:17;;;;;;;21.95;12.52;;;3.80;99.90;;;;;;5091521;28;20032;-50
2021/11/11 03:26:43;;;;;;;19.15;13.23;;;3.80;99.90;;;;;;5090334;28;20362;-50
2021/11/11 03:29:09;;;;;;;24.95;15.43;;;3.90;99.90;;;;;;5090960;28;20231;-48
2021/11/11 03:31:34;;;;;;;21.13;13.00;;;4.00;99.90;;;;;;5091318;28;20095;-49
2021/11/11 03:34:00;;;;;;;24.33;13.10;;;4.00;99.90;;;;;;5071073;28;20020;-48
2021/11/11 03:36:25;;;;;;;22.80;13.35;;;4.00;99.90;;;;;;5087029;28;20031;-49
2021/11/11 03:38:51;;;;;;;24.67;14.82;;;4.10;99.90;;;;;;5089305;28;20020;-51
2021/11/11 03:41:16;;;;;;;21.50;13.05;;;4.10;99.90;;;;;;5091213;28;20393;-49
2021/11/11 03:43:42;;;;;;;24.35;14.07;;;4.10;99.90;;;;;;5091074;28;20039;-51
2021/11/11 03:46:12;;;;;;;22.83;14.00;;;4.20;99.90;;;;;;5091230;28;20087;-49
2021/11/11 03:48:37;;;;;;;20.13;13.60;;;4.20;99.90;;;;;;5089084;28;20028;-50
2021/11/11 03:51:03;;;;;;;21.80;12.25;;;4.20;99.90;;;;;;5091163;28;20055;-49
2021/11/11 03:53:29;;;;;;;21.60;12.55;;;4.30;99.90;;;;;;5091286;28;20032;-50
2021/11/11 03:55:55;;;;;;;22.83;12.93;;;4.30;99.90;;;;;;5091464;28;20027;-49
2021/11/11 03:58:20;;;;;;;18.70;12.05;;;4.40;99.90;;;;;;5090578;28;20099;-49
2021/11/11 04:00:46;;;;;;;19.98;12.05;;;4.40;99.90;;;;;;5090904;28;20131;-52
2021/11/11 04:03:11;;;;;;;21.13;13.50;;;4.40;99.90;;;;;;5075397;28;20046;-50
2021/11/11 04:05:37;;;;;;;23.35;12.88;;;4.40;99.90;;;;;;5082421;28;20085;-49
2021/11/11 04:08:03;;;;;;;22.20;12.10;;;4.40;99.90;;;;;;5090228;28;20080;-51
2021/11/11 04:10:28;;;;;;;17.20;10.98;;;4.40;99.90;;;;;;5090632;28;20026;-48
2021/11/11 04:12:54;;;;;;;19.33;11.82;;;4.40;99.90;;;;;;5090941;28;20504;-48
2021/11/11 04:15:20;;;;;;;18.63;11.88;;;4.40;99.90;;;;;;5091048;28;20170;-49
2021/11/11 04:17:45;;;;;;;17.50;11.68;;;4.40;99.90;;;;;;5089934;28;20274;-48
2021/11/11 04:20:11;;;;;;;19.73;12.13;;;4.40;99.90;;;;;;5090979;28;20430;-47
2021/11/11 04:22:37;;;;;;;17.10;11.75;;;4.40;99.90;;;;;;5090635;28;20056;-48
2021/11/11 04:25:06;;;;;;;17.17;11.52;;;4.50;99.90;;;;;;5090539;28;20019;-48
2021/11/11 04:27:37;;;;;;;24.27;12.75;;;4.40;99.90;;;;;;5076272;28;20413;-48
2021/11/11 04:30:15;;;;;;;16.58;11.13;;;4.50;99.90;;;;;;5082326;28;20063;-48
2021/11/11 04:32:40;;;;;;;19.40;11.15;;;4.50;99.90;;;;;;5090548;28;20032;-49
2021/11/11 04:35:08;;;;;;;17.80;11.35;;;4.50;99.90;;;;;;5090293;28;20059;-48
2021/11/11 04:37:43;;;;;;;20.83;11.27;;;4.60;99.90;;;;;;5089887;28;20024;-48
2021/11/11 04:59:27;;;;;;;24.45;12.77;;;4.70;99.90;;;;;;5090306;28;20145;-49
2021/11/11 05:01:41;;;;;;;22.20;13.00;;;4.80;99.90;;;;;;5090211;28;20053;-51
2021/11/11 05:04:05;;;;;;;25.98;14.43;;;4.80;99.90;;;;;;5089695;28;20143;-50
2021/11/11 05:06:30;;;;;;;23.20;13.60;;;4.90;99.90;;;;;;5089841;28;20077;-49
2021/11/11 05:08:56;;;;;;;17.95;12.77;;;5.00;99.90;;;;;;5089200;28;20046;-49
2021/11/11 05:11:22;;;;;;;27.85;14.02;;;5.00;99.90;;;;;;5079915;28;20069;-50
2021/11/11 05:13:48;;;;;;;27.52;14.07;;;5.00;99.90;;;;;;5081130;28;20066;-49
2021/11/11 05:16:13;;;;;;;25.02;14.80;;;5.00;99.90;;;;;;5089568;28;20032;-52
2021/11/11 05:18:39;;;;;;;30.85;16.25;;;5.00;99.90;;;;;;5087498;28;20036;-52
2021/11/11 05:21:04;;;;;;;23.95;14.13;;;5.00;99.90;;;;;;5089677;28;20062;-52
2021/11/11 05:23:30;;;;;;;25.58;14.10;;;5.10;99.90;;;;;;5089585;28;20031;-50
2021/11/11 05:25:55;;;;;;;28.15;15.27;;;5.10;99.90;;;;;;5089297;28;20445;-50
2021/11/11 05:28:21;;;;;;;24.98;14.23;;;5.10;99.90;;;;;;5070544;28;20393;-49
2021/11/11 05:30:47;;;;;;;22.67;13.73;;;5.10;99.90;;;;;;5086589;28;20020;-48
2021/11/11 05:33:13;;;;;;;28.55;15.90;;;5.10;99.90;;;;;;5089310;28;20038;-51
2021/11/11 05:35:39;;;;;;;26.75;15.95;;;5.10;99.90;;;;;;5079259;28;20026;-49
2021/11/11 05:38:05;;;;;;;24.65;14.63;;;5.10;99.90;;;;;;5081176;28;20016;-49
2021/11/11 05:40:32;;;;;;;28.77;15.75;;;5.10;99.90;;;;;;5088790;28;20104;-51
2021/11/11 05:42:58;;;;;;;28.75;15.75;;;5.10;99.90;;;;;;5087497;28;20020;-51
2021/11/11 05:45:23;;;;;;;30.17;15.50;;;5.10;99.90;;;;;;5081610;28;20083;-49
2021/11/11 05:47:49;;;;;;;27.35;14.60;;;5.10;99.90;;;;;;5055831;28;20041;-49
2021/11/11 05:50:16;;;;;;;27.27;15.52;;;5.10;99.90;;;;;;5048465;28;20024;-49
2021/11/11 05:52:42;;;;;;;28.77;15.63;;;5.20;99.90;;;;;;5051313;28;20033;-49
2021/11/11 05:55:08;;;;;;;28.75;15.48;;;5.10;99.90;;;;;;5057649;28;20390;-52
2021/11/11 05:57:34;;;;;;;30.48;15.45;;;5.20;99.90;;;;;;5064351;28;20017;-52
2021/11/11 06:00:00;;;;;;;28.33;14.25;;;5.20;99.90;;;;;;5062202;28;20052;-50
2021/11/11 06:02:26;;;;;;;27.23;16.13;;;5.20;99.90;;;;;;5056435;28;20021;-51
2021/11/11 06:04:51;;;;;;;26.40;14.90;;;5.30;99.90;;;;;;5064079;28;20442;-50
2021/11/11 06:07:17;;;;;;;35.25;18.13;;;5.30;99.90;;;;;;5063013;28;20316;-52
2021/11/11 06:09:42;;;;;;;36.08;19.17;;;5.30;99.90;;;;;;5059365;28;20020;-53
2021/11/11 06:12:08;;;;;;;37.97;18.80;;;5.30;99.90;;;;;;5068413;28;20356;-52
2021/11/11 06:14:34;;;;;;;42.65;18.52;;;5.30;99.90;;;;;;5064608;28;20032;-51
2021/11/11 06:17:01;;;;;;;31.88;18.23;;;5.30;99.90;;;;;;5057128;28;20024;-50
2021/11/11 06:19:27;;;;;;;38.03;18.85;;;5.20;99.90;;;;;;5081718;28;20023;-49
2021/11/11 06:21:54;;;;;;;45.80;20.80;;;5.20;99.90;;;;;;5090404;28;20024;-49
2021/11/11 06:24:20;;;;;;;40.22;20.13;;;5.20;99.90;;;;;;5088894;28;20500;-49
2021/11/11 06:26:46;;;;;;;38.67;19.98;;;5.20;99.90;;;;;;5090473;28;20036;-51
2021/11/11 06:29:11;;;;;;;44.42;20.33;;;5.20;99.90;;;;;;5089803;28;20020;-50
2021/11/11 06:31:37;;;;;;;37.28;20.13;;;5.20;99.90;;;;;;5080217;28;20581;-52
2021/11/11 06:34:03;;;;;;;41.97;21.65;;;5.30;99.90;;;;;;5067017;28;20099;-51
2021/11/11 06:36:29;;;;;;;42.88;21.67;;;5.30;99.90;;;;;;5067858;28;20024;-52
2021/11/11 06:38:54;;;;;;;45.75;21.67;;;5.30;99.90;;;;;;5064733;28;20143;-51
2021/11/11 06:41:20;;;;;;;44.45;21.92;;;5.30;99.90;;;;;;5067959;28;20040;-48
2021/11/11 06:43:45;;;;;;;43.90;23.50;;;5.20;99.90;;;;;;5071074;28;20674;-48
2021/11/11 06:46:11;;;;;;;49.25;25.27;;;5.30;99.90;;;;;;5063409;28;20629;-50
2021/11/11 06:48:37;;;;;;;41.65;22.63;;;5.30;99.90;;;;;;5066777;28;20012;-49
2021/11/11 06:51:03;;;;;;;47.25;23.83;;;5.30;99.90;;;;;;5073445;28;20048;-50
2021/11/11 06:53:29;;;;;;;44.72;25.23;;;5.30;99.90;;;;;;5077374;28;20021;-51
2021/11/11 06:55:55;;;;;;;44.13;23.35;;;5.30;99.90;;;;;;5071052;28;20039;-52
2021/11/11 06:58:23;;;;;;;44.55;22.77;;;5.30;99.90;;;;;;5083282;28;20119;-52
2021/11/11 07:01:00;;;;;;;40.47;22.05;;;5.40;99.90;;;;;;5074457;28;20024;-48
2021/11/11 07:03:27;;;;;;;40.47;22.25;;;5.40;99.90;;;;;;5077973;28;20172;-48
2021/11/11 07:05:53;;;;;;;40.05;21.10;;;5.40;99.90;;;;;;5075630;28;20120;-48
2021/11/11 07:08:18;;;;;;;45.80;22.98;;;5.40;99.90;;;;;;5089351;28;20099;-48
2021/11/11 07:10:47;;;;;;;43.70;21.63;;;5.50;99.90;;;;;;5076995;28;20099;-51
2021/11/11 07:13:13;;;;;;;44.30;21.45;;;5.40;99.90;;;;;;5081701;28;20036;-49
2021/11/11 07:15:40;;;;;;;38.83;20.13;;;5.30;99.90;;;;;;5068162;28;20075;-50
2021/11/11 07:18:08;;;;;;;40.28;22.83;;;5.30;99.90;;;;;;5069539;28;20032;-49
2021/11/11 07:20:34;;;;;;;36.75;21.58;;;5.30;99.90;;;;;;5093037;28;20020;-49
2021/11/11 07:23:02;;;;;;;37.10;21.30;;;5.40;99.90;;;;;;5093153;28;20115;-52
2021/11/11 07:25:29;;;;;;;34.97;20.55;;;5.50;99.90;;;;;;5090099;28;20008;-49
2021/11/11 07:27:55;;;;;;;39.28;20.58;;;5.50;99.90;;;;;;5072079;28;20054;-50
2021/11/11 07:30:22;;;;;;;39.00;19.55;;;5.50;99.90;;;;;;5072646;28;20021;-50
2021/11/11 07:32:48;;;;;;;35.83;20.17;;;5.60;99.90;;;;;;5084855;28;20024;-49
2021/11/11 07:35:14;;;;;;;37.63;18.13;;;5.60;99.90;;;;;;5089374;28;20016;-49
2021/11/11 07:37:42;;;;;;;37.20;19.58;;;5.70;99.90;;;;;;5082478;28;20020;-52
2021/11/11 07:40:09;;;;;;;36.88;19.25;;;5.80;99.90;;;;;;5067923;28;20054;-53
2021/11/11 07:42:36;;;;;;;38.00;19.70;;;5.90;99.90;;;;;;5050701;28;20116;-53
2021/11/11 07:45:03;;;;;;;33.60;20.13;;;5.90;99.90;;;;;;5050792;28;20029;-53
2021/11/11 07:47:29;;;;;;;38.05;19.52;;;6.00;99.90;;;;;;5050074;28;20032;-53
2021/11/11 07:49:57;;;;;;;35.50;20.27;;;6.00;99.90;;;;;;5050486;28;20024;-54
2021/11/11 07:52:23;;;;;;;30.98;20.02;;;6.00;99.90;;;;;;5050716;28;20032;-53
2021/11/11 07:54:49;;;;;;;33.13;18.73;;;6.10;99.90;;;;;;5049476;28;20089;-54
2021/11/11 07:57:15;;;;;;;33.70;19.75;;;6.10;99.90;;;;;;5050051;28;20492;-54
2021/11/11 07:59:41;;;;;;;41.28;21.05;;;6.10;99.90;;;;;;5050674;28;20509;-54
2021/11/11 08:02:07;;;;;;;31.83;19.10;;;6.00;99.90;;;;;;5050683;28;20158;-54
2021/11/11 08:04:33;;;;;;;33.50;20.15;;;6.10;99.90;;;;;;5049339;28;20345;-53
2021/11/11 08:06:59;;;;;;;34.17;19.48;;;6.00;99.90;;;;;;5081506;28;20492;-54
2021/11/11 08:09:24;;;;;;;34.35;18.75;;;6.00;99.90;;;;;;5090576;28;20055;-54
2021/11/11 08:11:50;;;;;;;32.15;18.42;;;6.10;99.90;;;;;;5090512;28;20024;-54
2021/11/11 08:14:16;;;;;;;31.63;18.25;;;6.10;99.90;;;;;;5090423;28;20077;-54
2021/11/11 08:16:42;;;;;;;35.58;19.70;;;6.10;99.90;;;;;;5090346;28;20024;-54
2021/11/11 08:19:07;;;;;;;34.28;19.75;;;6.20;99.90;;;;;;5089687;28;20287;-53
2021/11/11 08:21:33;;;;;;;39.08;20.88;;;6.20;99.90;;;;;;5090254;28;20028;-52
2021/11/11 08:23:59;;;;;;;45.08;22.65;;;6.30;99.90;;;;;;5089876;28;20505;-54
2021/11/11 08:26:25;;;;;;;41.97;22.70;;;6.30;99.90;;;;;;5089733;28;20081;-53
2021/11/11 08:28:51;;;;;;;43.97;24.20;;;6.30;99.90;;;;;;5089431;28;20103;-54
2021/11/11 08:31:17;;;;;;;51.95;26.33;;;6.40;99.90;;;;;;5090142;28;20185;-53
2021/11/11 08:33:43;;;;;;;50.70;25.92;;;6.40;99.90;;;;;;5088838;28;20039;-53
2021/11/11 08:36:08;;;;;;;51.58;27.67;;;6.40;99.90;;;;;;5069341;28;20036;-52
2021/11/11 08:38:34;;;;;;;48.00;25.67;;;6.50;99.90;;;;;;5081040;28;20030;-54
2021/11/11 08:41:00;;;;;;;52.75;27.15;;;6.60;99.90;;;;;;5091672;28;20043;-53
2021/11/11 08:43:26;;;;;;;56.60;27.70;;;6.60;99.90;;;;;;5091528;28;20024;-54
2021/11/11 08:45:51;;;;;;;54.45;28.13;;;6.70;99.90;;;;;;5082512;28;20418;-54
2021/11/11 08:48:19;;;;;;;63.42;30.95;;;6.90;99.90;;;;;;5067940;28;20037;-54
2021/11/11 08:50:44;;;;;;;68.72;31.23;;;7.00;99.90;;;;;;5057721;28;20076;-54
2021/11/11 08:53:12;;;;;;;63.42;28.40;;;7.00;99.90;;;;;;5060176;28;20602;-54
2021/11/11 08:55:39;;;;;;;67.03;29.08;;;7.10;99.90;;;;;;5060627;28;20089;-54
2021/11/11 08:58:06;;;;;;;63.53;31.27;;;7.10;99.90;;;;;;5060655;28;20024;-54
2021/11/11 09:00:44;;;;;;;65.57;32.22;;;7.20;99.90;;;;;;5062371;28;20718;-54
2021/11/11 09:03:12;;;;;;;62.95;30.67;;;7.20;99.90;;;;;;5067494;28;20036;-54
2021/11/11 09:05:38;;;;;;;61.15;30.65;;;7.30;99.90;;;;;;5062555;28;20016;-54
2021/11/11 09:08:05;;;;;;;66.80;30.77;;;7.30;99.90;;;;;;5063007;28;20383;-54
2021/11/11 09:10:31;;;;;;;56.35;29.27;;;7.40;99.90;;;;;;5058624;28;20021;-54
2021/11/11 09:12:57;;;;;;;57.15;30.50;;;7.50;99.90;;;;;;5059566;28;20386;-54
2021/11/11 09:15:27;;;;;;;62.80;29.27;;;7.50;99.90;;;;;;5066958;28;20030;-54
2021/11/11 09:17:53;;;;;;;56.40;26.73;;;7.40;99.90;;;;;;5069992;28;20035;-53
2021/11/11 09:20:19;;;;;;;59.83;28.13;;;7.40;99.90;;;;;;5070376;28;20033;-54
2021/11/11 09:22:50;;;;;;;56.30;28.08;;;7.40;99.90;;;;;;5070476;28;20402;-54
2021/11/11 09:25:15;;;;;;;56.28;26.60;;;7.50;99.90;;;;;;5070598;28;20032;-54
2021/11/11 09:27:42;;;;;;;60.22;27.92;;;7.50;99.90;;;;;;5069876;28;20029;-54
2021/11/11 09:30:12;;;;;;;60.90;29.38;;;7.50;99.90;;;;;;5068965;28;20112;-54
2021/11/11 09:32:38;;;;;;;56.28;27.80;;;7.60;99.90;;;;;;5070329;28;20095;-54
2021/11/11 09:35:05;;;;;;;52.13;26.52;;;7.60;99.90;;;;;;5067241;28;20075;-54
2021/11/11 09:37:31;;;;;;;62.92;28.10;;;7.50;99.90;;;;;;5074338;28;20088;-54
2021/11/11 09:39:57;;;;;;;46.95;24.70;;;7.60;99.90;;;;;;5050282;28;20033;-56
2021/11/11 09:42:24;;;;;;;56.25;27.63;;;7.60;99.90;;;;;;5050389;28;20394;-54
2021/11/11 09:44:50;;;;;;;55.97;27.15;;;7.70;99.90;;;;;;5048992;28;20029;-54
2021/11/11 09:47:17;;;;;;;50.90;26.02;;;7.70;99.90;;;;;;5048292;28;20025;-54
2021/11/11 09:49:44;;;;;;;56.78;26.70;;;7.70;99.90;;;;;;5048853;28;20025;-54
2021/11/11 09:52:10;;;;;;;51.58;25.20;;;7.80;99.90;;;;;;5048600;28;20021;-54
2021/11/11 09:59:45;;;;;;;53.78;24.70;;;7.90;99.90;;;;;;5049186;28;20402;-54
2021/11/11 10:02:11;;;;;;;46.15;22.45;;;8.00;99.90;;;;;;5048559;28;20025;-54
2021/11/11 10:04:38;;;;;;;44.08;22.92;;;8.00;99.90;;;;;;5064894;28;20031;-54
2021/11/11 10:07:05;;;;;;;37.80;20.85;;;8.10;99.90;;;;;;5079192;28;20027;-54
2021/11/11 10:09:31;;;;;;;42.45;22.65;;;8.30;99.90;;;;;;5088653;28;20027;-54
2021/11/11 10:12:00;;;;;;;33.83;19.52;;;8.40;99.90;;;;;;5088512;28;20020;-54
2021/11/11 10:14:33;;;;;;;41.60;19.60;;;8.50;99.90;;;;;;5088591;28;20024;-54
2021/11/11 10:17:02;;;;;;;35.63;21.00;;;8.70;99.90;;;;;;5088559;28;20024;-54
2021/11/11 10:19:30;;;;;;;29.95;18.05;;;8.80;99.90;;;;;;5088522;28;20055;-54
2021/11/11 10:22:10;;;;;;;38.08;19.33;;;8.80;99.90;;;;;;5088620;28;20393;-54
2021/11/11 10:24:49;;;;;;;28.70;17.58;;;9.00;99.90;;;;;;5088369;28;20107;-54
2021/11/11 10:27:38;;;;;;;25.13;15.65;;;9.20;99.90;;;;;;5087923;28;20048;-54
2021/11/11 10:30:30;;;;;;;31.23;15.95;;;9.40;99.90;;;;;;5088265;28;20082;-54
2021/11/11 10:33:05;;;;;;;26.27;15.82;;;9.60;99.90;;;;;;5085384;28;20396;-55
2021/11/11 10:35:33;;;;;;;24.70;14.93;;;9.50;99.90;;;;;;5072613;28;20063;-54
2021/11/11 10:38:06;;;;;;;25.23;15.18;;;9.70;99.90;;;;;;5061116;28;20074;-54
2021/11/11 10:40:42;;;;;;;23.15;14.15;;;9.60;99.90;;;;;;5056815;28;20407;-54
2021/11/11 10:43:15;;;;;;;21.60;12.98;;;9.60;99.90;;;;;;5057655;28;20104;-54
2021/11/11 10:45:43;;;;;;;18.70;13.30;;;9.80;99.90;;;;;;5057705;28;20021;-54
2021/11/11 10:48:12;;;;;;;22.33;12.70;;;9.90;99.90;;;;;;5056398;28;20248;-54
2021/11/11 10:50:41;;;;;;;20.48;12.55;;;9.90;99.90;;;;;;5068528;28;20382;-54
2021/11/11 10:53:08;;;;;;;17.35;12.13;;;10.00;99.90;;;;;;5071913;28;20036;-54
2021/11/11 10:55:42;;;;;;;19.20;12.52;;;10.10;99.90;;;;;;5071704;28;20025;-55
2021/11/11 10:58:19;;;;;;;18.63;12.48;;;10.30;99.90;;;;;;5071073;28;20032;-55
2021/11/11 11:00:57;;;;;;;22.02;13.85;;;10.30;99.90;;;;;;5066262;28;20032;-54
2021/11/11 11:03:32;;;;;;;16.73;11.35;;;10.40;99.90;;;;;;5064143;28;20016;-55
2021/11/11 11:06:01;;;;;;;18.80;12.95;;;10.50;99.90;;;;;;5068611;28;20020;-55
2021/11/11 11:08:32;;;;;;;15.60;10.88;;;10.60;99.90;;;;;;5062406;28;20039;-54
2021/11/11 11:11:05;;;;;;;15.70;10.52;;;10.70;99.90;;;;;;5061255;28;20010;-54
2021/11/11 11:13:44;;;;;;;19.42;10.73;;;10.80;99.90;;;;;;5058652;28;20052;-55
2021/11/11 11:16:12;;;;;;;16.67;10.57;;;10.80;99.90;;;;;;5059901;28;20240;-54
2021/11/11 11:18:43;;;;;;;16.50;9.75;;;10.90;99.90;;;;;;5060406;28;20092;-54
2021/11/11 11:21:14;;;;;;;14.63;9.27;;;10.90;99.90;;;;;;5062025;28;20028;-54
2021/11/11 11:23:51;;;;;;;13.73;8.95;;;11.00;99.90;;;;;;5061872;28;20028;-44
2021/11/11 11:26:28;;;;;;;11.52;7.63;;;11.00;99.90;;;;;;5061934;28;20024;-46
2021/11/11 11:29:11;;;;;;;17.80;8.60;;;11.00;99.90;;;;;;5060576;28;20529;-45
2021/11/11 11:31:54;;;;;;;15.57;8.90;;;11.00;99.90;;;;;;5064064;22;20513;-43
2021/11/11 11:34:29;;;;;;;11.57;8.10;;;11.00;99.90;;;;;;5028435;28;20022;-43
2021/11/11 11:36:57;;;;;;;16.30;9.48;;;11.00;99.90;;;;;;5032950;28;20104;-43
2021/11/11 11:39:22;;;;;;;13.07;8.63;;;11.00;99.90;;;;;;5023406;28;20041;-44
2021/11/11 11:41:48;;;;;;;13.45;8.90;;;11.10;99.90;;;;;;5021552;28;20037;-46
2021/11/11 11:44:42;;;;;;;14.10;7.88;;;11.10;99.90;;;;;;5021335;28;20064;-44
2021/11/11 11:50:20;;;;;;;10.60;7.70;;;11.10;99.90;;;;;;5020897;28;20063;-45
2021/11/11 11:52:51;;;;;;;14.70;8.13;;;11.20;99.90;;;;;;5021134;28;20028;-44
2021/11/11 11:58:08;;;;;;;12.73;8.30;;;11.20;99.90;;;;;;5019821;28;20498;-44
2021/11/11 12:06:27;;;;;;;12.38;7.18;;;11.20;99.90;;;;;;5024728;28;20093;-43
2021/11/11 12:14:37;;;;;;;12.75;7.72;;;11.10;99.90;;;;;;5018808;28;20017;-46
2021/11/11 12:17:25;;;;;;;12.68;8.55;;;11.20;99.90;;;;;;5019740;28;20064;-45
2021/11/11 12:39:54;;;;;;;12.52;7.30;;;10.60;99.90;;;;;;5032737;28;20044;-44
2021/11/11 12:42:30;;;;;;;14.88;8.00;;;10.50;99.90;;;;;;5030077;28;20047;-43
2021/11/11 12:45:07;;;;;;;13.07;8.68;;;10.50;99.90;;;;;;5036947;28;20060;-43
2021/11/11 12:48:09;;;;;;;15.15;8.20;;;10.60;99.90;;;;;;5045835;28;20021;-44
2021/11/11 12:50:50;;;;;;;10.73;7.18;;;10.50;99.90;;;;;;5036442;28;20152;-43
2021/11/11 12:53:16;;;;;;;11.60;6.72;;;10.50;99.90;;;;;;5039325;28;20091;-43
2021/11/11 12:55:54;;;;;;;8.35;5.38;;;10.50;99.90;;;;;;5031470;28;20022;-43
2021/11/11 12:58:30;;;;;;;7.85;4.90;;;10.60;99.90;;;;;;5029633;28;20495;-45
2021/11/11 13:01:00;;;;;;;8.88;4.32;;;10.80;99.90;;;;;;5040458;28;20047;-43
2021/11/11 13:03:50;;;;;;;7.78;4.70;;;10.80;99.90;;;;;;5048976;28;20035;-44
2021/11/11 13:06:39;;;;;;;6.87;4.50;;;10.80;99.90;;;;;;5047882;28;20017;-43
2021/11/11 13:09:08;;;;;;;5.50;3.80;;;11.00;99.90;;;;;;5047742;28;20772;-44
2021/11/11 13:11:36;;;;;;;6.47;3.85;;;11.20;99.90;;;;;;5046055;28;20107;-44
2021/11/11 13:14:16;;;;;;;6.78;4.03;;;11.40;99.90;;;;;;5046146;28;20946;-47
2021/11/11 13:17:08;;;;;;;6.65;3.95;;;11.60;99.90;;;;;;5034037;28;20353;-44
2021/11/11 13:19:37;;;;;;;4.50;3.60;;;11.70;99.90;;;;;;5027742;28;20029;-43
2021/11/11 13:22:12;;;;;;;4.57;3.42;;;11.70;99.90;;;;;;5029028;28;20201;-43
2021/11/11 13:24:59;;;;;;;7.10;5.20;;;11.50;99.90;;;;;;5024125;28;20074;-44
2021/11/11 13:27:57;;;;;;;7.78;5.18;;;11.60;99.90;;;;;;5027034;28;20399;-46
2021/11/11 16:03:31;;;;;;;15.65;9.43;;;9.20;99.90;;;;;;5038010;28;20025;-44
2021/11/11 16:27:12;;;;;;;16.80;9.20;;;9.10;99.90;;;;;;5047190;28;20032;-44
2021/11/11 16:29:37;;;;;;;13.32;9.18;;;9.10;99.90;;;;;;5038786;28;20020;-44
2021/11/11 16:32:04;;;;;;;13.48;8.23;;;9.00;99.90;;;;;;5048908;28;20029;-44
2021/11/11 16:34:30;;;;;;;13.05;8.10;;;9.00;99.90;;;;;;5040073;28;20049;-43
2021/11/11 16:36:58;;;;;;;15.07;8.48;;;9.00;99.90;;;;;;5049389;28;20021;-44
2021/11/11 16:39:25;;;;;;;15.63;8.68;;;9.00;99.90;;;;;;5046649;28;20119;-44